createdAt,value
2023-05-05T00:01:03.385Z,20.48
2023-05-05T00:03:31.457Z,20.10
2023-05-05T00:05:58.956Z,20.65
2023-05-05T00:08:26.072Z,20.02
2023-05-05T00:10:54.247Z,19.20
2023-05-05T00:13:22.002Z,20.15
2023-05-05T00:15:50.702Z,20.35
2023-05-05T00:18:18.605Z,19.67
2023-05-05T00:20:47.425Z,19.90
2023-05-05T00:23:16.465Z,19.15
2023-05-05T00:25:43.549Z,21.63
2023-05-05T00:28:10.692Z,20.52
2023-05-05T00:30:40.327Z,22.15
2023-05-05T00:33:15.418Z,21.25
2023-05-05T00:35:45.076Z,20.55
2023-05-05T00:38:12.068Z,21.20
2023-05-05T00:40:39.222Z,22.85
2023-05-05T00:43:07.755Z,22.38
2023-05-05T00:45:37.061Z,21.10
2023-05-05T00:48:04.535Z,21.35
2023-05-05T00:50:31.880Z,21.77
2023-05-05T00:53:03.278Z,21.90
2023-05-05T00:55:32.543Z,23.02
2023-05-05T00:58:03.325Z,22.10
2023-05-05T01:00:31.660Z,22.48
2023-05-05T01:02:59.876Z,23.40
2023-05-05T01:05:48.381Z,23.15
2023-05-05T01:08:44.527Z,22.38
2023-05-05T01:11:35.952Z,20.70
2023-05-05T01:14:26.062Z,21.25
2023-05-05T01:17:22.456Z,22.90
2023-05-05T01:20:11.946Z,20.63
2023-05-05T01:22:47.099Z,22.60
2023-05-05T01:25:47.837Z,22.83
2023-05-05T01:28:34.760Z,24.17
2023-05-05T01:31:14.228Z,21.38
2023-05-05T01:33:49.859Z,24.15
2023-05-05T01:36:24.392Z,21.33
2023-05-05T01:38:58.226Z,21.67
2023-05-05T01:44:03.395Z,23.35
2023-05-05T01:46:30.682Z,24.45
2023-05-05T01:48:59.068Z,23.50
2023-05-05T01:51:28.034Z,24.02
2023-05-05T01:54:02.751Z,22.38
2023-05-05T01:56:31.736Z,23.50
2023-05-05T01:59:01.783Z,23.05
2023-05-05T02:01:30.575Z,24.98
2023-05-05T02:03:59.816Z,25.58
2023-05-05T02:06:32.466Z,24.48
2023-05-05T02:09:01.619Z,25.42
2023-05-05T02:11:29.913Z,23.17
2023-05-05T02:13:58.966Z,23.92
2023-05-05T02:16:27.420Z,23.77
2023-05-05T02:18:57.461Z,25.95
2023-05-05T02:21:24.410Z,25.45
2023-05-05T02:23:52.149Z,25.70
2023-05-05T02:26:22.953Z,25.63
2023-05-05T02:29:07.612Z,25.60
2023-05-05T02:31:41.627Z,27.73
2023-05-05T02:36:40.047Z,25.55
2023-05-05T02:39:14.934Z,26.42
2023-05-05T02:41:44.450Z,26.33
2023-05-05T02:44:24.903Z,26.25
2023-05-05T02:46:54.456Z,27.00
2023-05-05T02:49:21.881Z,28.02
2023-05-05T02:51:49.608Z,27.92
2023-05-05T02:54:26.039Z,27.27
2023-05-05T02:56:56.782Z,27.27
2023-05-05T03:00:06.352Z,30.20
2023-05-05T03:02:54.813Z,28.45
2023-05-05T03:05:35.821Z,29.10
2023-05-05T03:08:29.749Z,28.98
2023-05-05T03:11:07.067Z,29.10
2023-05-05T03:13:43.067Z,31.25
2023-05-05T03:16:15.543Z,29.52
2023-05-05T03:18:43.583Z,30.38
2023-05-05T03:21:11.900Z,30.92
2023-05-05T03:23:42.020Z,31.35
2023-05-05T03:26:18.814Z,30.77
2023-05-05T03:28:47.158Z,31.88
2023-05-05T03:31:22.856Z,32.03
2023-05-05T03:33:54.729Z,30.45
2023-05-05T03:36:27.796Z,29.00
2023-05-05T03:38:56.553Z,31.30
2023-05-05T03:41:25.869Z,31.10
2023-05-05T03:43:53.848Z,33.03
2023-05-05T03:46:21.381Z,33.00
2023-05-05T03:48:48.825Z,30.80
2023-05-05T03:51:16.666Z,31.17
2023-05-05T03:53:43.953Z,33.00
2023-05-05T03:56:11.349Z,32.88
2023-05-05T03:58:38.879Z,30.83
2023-05-05T04:01:07.260Z,31.27
2023-05-05T04:03:34.897Z,31.08
2023-05-05T04:06:02.563Z,31.95
2023-05-05T04:08:31.640Z,30.70
2023-05-05T04:10:58.719Z,31.65
2023-05-05T04:13:26.133Z,30.88
2023-05-05T04:15:53.659Z,30.50
2023-05-05T04:18:21.186Z,31.08
2023-05-05T04:20:48.356Z,31.48
2023-05-05T04:23:16.992Z,30.70
2023-05-05T04:25:45.766Z,31.40
2023-05-05T04:28:13.616Z,32.15
2023-05-05T04:30:41.872Z,32.00
2023-05-05T04:33:09.881Z,32.45
2023-05-05T04:35:37.127Z,31.20
2023-05-05T04:38:04.216Z,31.75
2023-05-05T04:40:31.704Z,30.27
2023-05-05T04:42:59.319Z,32.38
2023-05-05T04:45:26.526Z,33.58
2023-05-05T04:47:53.695Z,32.20
2023-05-05T04:50:21.644Z,34.83
2023-05-05T04:52:48.935Z,35.80
2023-05-05T04:55:16.820Z,35.20
2023-05-05T04:57:44.547Z,33.65
2023-05-05T05:00:13.079Z,33.35
2023-05-05T05:02:40.408Z,33.45
2023-05-05T05:05:10.112Z,32.90
2023-05-05T05:07:37.488Z,32.97
2023-05-05T05:10:04.985Z,36.10
2023-05-05T05:12:32.262Z,34.47
2023-05-05T05:14:59.301Z,34.72
2023-05-05T05:17:26.974Z,34.70
2023-05-05T05:19:55.489Z,37.47
2023-05-05T05:22:23.251Z,35.65
2023-05-05T05:24:50.809Z,34.80
2023-05-05T05:27:18.006Z,35.90
2023-05-05T05:29:47.675Z,35.70
2023-05-05T05:32:15.859Z,34.50
2023-05-05T05:34:43.053Z,36.60
2023-05-05T05:37:12.397Z,35.78
2023-05-05T05:39:41.997Z,34.05
2023-05-05T05:42:11.311Z,35.65
2023-05-05T05:44:38.261Z,34.60
2023-05-05T05:47:05.600Z,35.65
2023-05-05T05:49:32.677Z,35.30
2023-05-05T05:51:59.615Z,36.28
2023-05-05T05:54:26.724Z,34.00
2023-05-05T05:56:54.482Z,32.78
2023-05-05T05:59:21.832Z,34.47
2023-05-05T06:01:48.990Z,33.65
2023-05-05T06:04:16.487Z,32.88
2023-05-05T06:06:44.502Z,32.78
2023-05-05T06:09:11.560Z,32.10
2023-05-05T06:11:43.713Z,31.75
2023-05-05T06:14:11.369Z,32.00
2023-05-05T06:16:38.651Z,33.80
2023-05-05T06:19:10.798Z,34.25
2023-05-05T06:21:38.669Z,33.67
2023-05-05T06:24:06.106Z,33.30
2023-05-05T06:26:35.190Z,35.15
2023-05-05T06:29:02.838Z,33.30
2023-05-05T06:31:30.103Z,33.88
2023-05-05T06:33:57.236Z,33.55
2023-05-05T06:36:24.320Z,32.90
2023-05-05T06:38:51.417Z,32.58
2023-05-05T06:41:18.407Z,29.15
2023-05-05T06:43:45.445Z,32.55
2023-05-05T06:46:14.400Z,33.33
2023-05-05T06:48:41.501Z,29.05
2023-05-05T06:51:09.715Z,29.65
2023-05-05T06:53:36.925Z,30.25
2023-05-05T06:56:04.576Z,32.60
2023-05-05T06:58:31.753Z,31.48
2023-05-05T07:00:58.762Z,29.05
2023-05-05T07:03:28.399Z,27.02
2023-05-05T07:05:55.986Z,27.67
2023-05-05T07:08:23.030Z,29.25
2023-05-05T07:10:49.984Z,29.27
2023-05-05T07:13:17.500Z,29.13
2023-05-05T07:15:46.612Z,26.33
2023-05-05T07:18:15.355Z,26.75
2023-05-05T07:20:46.595Z,28.95
2023-05-05T07:23:14.006Z,29.70
2023-05-05T07:25:41.206Z,30.85
2023-05-05T07:28:08.299Z,35.17
2023-05-05T07:30:36.509Z,27.10
2023-05-05T07:33:04.055Z,25.27
2023-05-05T07:35:31.174Z,30.40
2023-05-05T07:37:58.842Z,24.73
2023-05-05T07:40:26.015Z,25.02
2023-05-05T07:42:53.110Z,26.63
2023-05-05T07:45:21.253Z,26.90
2023-05-05T07:47:48.549Z,24.03
2023-05-05T07:50:16.354Z,23.02
2023-05-05T07:52:49.881Z,22.15
2023-05-05T07:55:23.327Z,21.48
2023-05-05T07:57:50.986Z,23.92
2023-05-05T08:00:19.632Z,23.55
2023-05-05T08:02:48.224Z,21.63
2023-05-05T08:05:16.986Z,23.63
2023-05-05T08:07:44.260Z,23.58
2023-05-05T08:10:12.169Z,21.52
2023-05-05T08:12:39.940Z,22.75
2023-05-05T08:15:07.962Z,23.75
2023-05-05T08:17:52.402Z,20.20
2023-05-05T08:20:21.138Z,19.80
2023-05-05T08:22:48.475Z,19.30
2023-05-05T08:25:15.512Z,18.85
2023-05-05T08:27:43.474Z,19.20
2023-05-05T08:30:11.922Z,18.70
2023-05-05T08:32:39.090Z,18.70
2023-05-05T08:35:08.294Z,19.05
2023-05-05T08:37:35.784Z,18.23
2023-05-05T08:40:03.481Z,18.60
2023-05-05T08:42:38.798Z,15.20
2023-05-05T08:45:10.848Z,15.15
2023-05-05T08:47:39.879Z,15.25
2023-05-05T08:50:10.969Z,8.43
2023-05-05T08:52:45.924Z,9.73
2023-05-05T08:55:26.679Z,9.80
2023-05-05T08:57:58.660Z,9.10
2023-05-05T09:00:27.885Z,7.90
2023-05-05T09:03:00.223Z,7.82
2023-05-05T09:05:28.888Z,7.20
2023-05-05T09:07:56.918Z,7.75
2023-05-05T09:10:30.310Z,7.32
2023-05-05T09:12:57.629Z,8.65
2023-05-05T09:15:28.346Z,8.48
2023-05-05T09:17:58.366Z,8.23
2023-05-05T09:20:35.290Z,8.30
2023-05-05T09:23:14.045Z,7.32
2023-05-05T09:25:49.901Z,7.22
2023-05-05T09:28:18.961Z,5.47
2023-05-05T09:30:47.116Z,4.65
2023-05-05T09:33:14.416Z,4.32
2023-05-05T09:35:53.252Z,4.15
2023-05-05T09:38:22.900Z,3.88
2023-05-05T09:40:52.847Z,5.35
2023-05-05T09:43:22.992Z,5.63
2023-05-05T09:45:51.105Z,5.80
2023-05-05T09:48:30.720Z,5.82
2023-05-05T09:50:59.319Z,6.10
2023-05-05T09:53:38.653Z,5.82
2023-05-05T09:56:07.302Z,5.18
2023-05-05T09:58:35.091Z,5.47
2023-05-05T10:01:02.881Z,4.20
2023-05-05T10:03:29.969Z,5.22
2023-05-05T10:05:59.734Z,4.28
2023-05-05T10:08:30.988Z,4.68
2023-05-05T10:11:07.312Z,4.05
2023-05-05T10:13:41.051Z,4.47
2023-05-05T10:16:09.649Z,5.45
2023-05-05T10:18:38.680Z,4.30
2023-05-05T10:21:06.843Z,3.95
2023-05-05T10:23:43.725Z,5.05
2023-05-05T10:26:15.403Z,4.53
2023-05-05T10:28:53.483Z,5.97
2023-05-05T10:31:30.219Z,5.93
2023-05-05T10:34:06.930Z,5.47
2023-05-05T10:36:34.846Z,6.95
2023-05-05T10:39:03.342Z,5.70
2023-05-05T10:41:33.174Z,7.43
2023-05-05T10:44:03.769Z,6.80
2023-05-05T10:46:32.067Z,6.30
2023-05-05T10:49:25.728Z,6.85
2023-05-05T10:52:02.432Z,6.93
2023-05-05T10:54:51.296Z,6.30
2023-05-05T10:57:24.402Z,7.45
2023-05-05T10:59:52.287Z,8.45
2023-05-05T11:02:23.822Z,7.93
2023-05-05T11:05:18.513Z,6.20
2023-05-05T11:07:49.249Z,7.00
2023-05-05T11:10:23.346Z,7.70
2023-05-05T11:13:00.055Z,8.30
2023-05-05T11:15:30.593Z,7.90
2023-05-05T11:17:59.997Z,7.30
2023-05-05T11:20:36.814Z,8.00
2023-05-05T11:23:22.003Z,7.05
2023-05-05T11:25:51.425Z,6.63
2023-05-05T11:28:31.158Z,7.18
2023-05-05T11:31:01.224Z,7.82
2023-05-05T11:33:37.733Z,7.38
2023-05-05T11:36:10.038Z,8.27
2023-05-05T11:39:12.178Z,8.25
2023-05-05T11:41:48.620Z,8.23
2023-05-05T11:44:19.815Z,7.35
2023-05-05T11:46:52.815Z,8.30
2023-05-05T11:49:30.658Z,8.45
2023-05-05T11:52:12.594Z,8.15
2023-05-05T11:54:50.408Z,8.05
2023-05-05T11:57:23.916Z,7.65
2023-05-05T11:59:55.201Z,7.75
2023-05-05T12:02:23.950Z,7.35
2023-05-05T12:04:51.727Z,7.45
2023-05-05T12:07:22.676Z,7.43
2023-05-05T12:09:50.718Z,7.40
2023-05-05T12:12:19.061Z,7.85
2023-05-05T12:14:53.167Z,8.77
2023-05-05T12:17:22.542Z,8.00
2023-05-05T12:19:54.783Z,6.75
2023-05-05T12:22:26.941Z,7.32
2023-05-05T12:24:55.766Z,6.50
2023-05-05T12:27:23.276Z,6.85
2023-05-05T12:29:52.664Z,6.45
2023-05-05T12:32:28.166Z,6.43
2023-05-05T12:34:57.603Z,7.43
2023-05-05T12:37:26.887Z,6.47
2023-05-05T12:39:55.178Z,6.53
2023-05-05T12:42:23.408Z,7.70
2023-05-05T12:44:50.729Z,6.45
2023-05-05T12:47:32.495Z,8.90
2023-05-05T12:50:00.575Z,7.70
2023-05-05T12:52:45.312Z,9.32
2023-05-05T12:55:13.223Z,7.32
2023-05-05T12:58:01.005Z,7.00
2023-05-05T13:00:29.252Z,7.70
2023-05-05T13:02:56.964Z,7.57
2023-05-05T13:05:41.087Z,7.65
2023-05-05T13:10:36.337Z,7.93
2023-05-05T13:13:05.018Z,6.45
2023-05-05T13:15:33.813Z,7.88
2023-05-05T13:18:01.540Z,6.93
2023-05-05T13:20:29.759Z,6.70
2023-05-05T13:22:57.424Z,7.60
2023-05-05T13:25:24.422Z,6.15
2023-05-05T13:27:51.494Z,6.20
2023-05-05T13:30:18.580Z,6.18
2023-05-05T13:32:45.597Z,6.18
2023-05-05T13:35:15.454Z,6.20
2023-05-05T13:37:44.404Z,6.47
2023-05-05T13:40:13.437Z,6.13
2023-05-05T13:42:40.430Z,6.80
2023-05-05T13:45:08.357Z,6.25
2023-05-05T13:47:35.987Z,5.43
2023-05-05T13:50:03.138Z,7.60
2023-05-05T13:52:31.809Z,6.35
2023-05-05T13:55:00.934Z,6.82
2023-05-05T13:57:28.105Z,6.82
2023-05-05T13:59:55.156Z,6.25
2023-05-05T14:02:22.204Z,6.40
2023-05-05T14:04:49.312Z,6.03
2023-05-05T14:07:16.960Z,6.03
2023-05-05T14:09:44.456Z,7.00
2023-05-05T14:12:11.685Z,6.00
2023-05-05T14:14:38.662Z,7.88
2023-05-05T14:17:05.940Z,4.93
2023-05-05T14:19:33.515Z,5.78
2023-05-05T14:22:00.557Z,4.82
2023-05-05T14:24:27.599Z,5.45
2023-05-05T14:26:54.730Z,5.53
2023-05-05T14:29:21.686Z,4.57
2023-05-05T14:31:48.740Z,6.95
2023-05-05T14:34:15.777Z,4.27
2023-05-05T14:36:42.682Z,5.00
2023-05-05T14:39:09.660Z,5.25
2023-05-05T14:41:36.770Z,5.50
2023-05-05T14:44:03.915Z,5.80
2023-05-05T14:46:31.737Z,4.45
2023-05-05T14:48:59.056Z,6.40
2023-05-05T14:51:26.145Z,6.20
2023-05-05T14:53:53.144Z,6.40
2023-05-05T14:56:22.563Z,5.85
2023-05-05T14:58:49.633Z,7.85
2023-05-05T15:01:16.940Z,6.40
2023-05-05T15:03:44.081Z,5.25
2023-05-05T15:06:11.200Z,7.18
2023-05-05T15:08:39.209Z,7.20
2023-05-05T15:11:06.674Z,6.97
2023-05-05T15:13:33.697Z,8.68
2023-05-05T15:16:00.941Z,8.27
2023-05-05T15:18:27.925Z,7.55
2023-05-05T15:20:54.871Z,6.25
2023-05-05T15:23:21.916Z,6.55
2023-05-05T15:25:48.972Z,6.70
2023-05-05T15:28:16.056Z,7.15
2023-05-05T15:30:43.181Z,8.70
2023-05-05T15:33:10.257Z,9.35
2023-05-05T15:35:37.488Z,8.07
2023-05-05T15:38:04.507Z,6.90
2023-05-05T15:40:31.661Z,8.85
2023-05-05T15:42:58.868Z,8.52
2023-05-05T15:45:26.076Z,8.25
2023-05-05T15:47:53.820Z,6.60
2023-05-05T15:50:21.237Z,8.20
2023-05-05T15:52:50.075Z,8.50
2023-05-05T15:55:17.564Z,6.93
2023-05-05T15:57:44.575Z,7.55
2023-05-05T16:00:12.469Z,7.85
2023-05-05T16:02:39.756Z,6.68
2023-05-05T16:05:07.272Z,7.13
2023-05-05T16:07:34.493Z,8.38
2023-05-05T16:10:01.521Z,7.88
2023-05-05T16:12:28.608Z,8.18
2023-05-05T16:14:55.822Z,8.55
2023-05-05T16:17:22.956Z,8.95
2023-05-05T16:19:49.986Z,9.20
2023-05-05T16:22:17.016Z,9.32
2023-05-05T16:24:44.437Z,8.65
2023-05-05T16:27:11.617Z,10.10
2023-05-05T16:29:38.668Z,9.18
2023-05-05T16:32:06.168Z,8.55
2023-05-05T16:34:33.624Z,9.73
2023-05-05T16:37:00.844Z,8.10
2023-05-05T16:39:27.918Z,8.40
2023-05-05T16:41:55.012Z,8.43
2023-05-05T16:44:21.963Z,8.82
2023-05-05T16:46:48.934Z,8.95
2023-05-05T16:49:16.122Z,9.45
2023-05-05T16:51:43.115Z,8.07
2023-05-05T16:54:10.174Z,9.15
2023-05-05T16:56:37.344Z,6.70
2023-05-05T16:59:04.351Z,8.80
2023-05-05T17:01:32.067Z,9.40
2023-05-05T17:04:02.449Z,9.50
2023-05-05T17:06:33.221Z,7.53
2023-05-05T17:09:00.437Z,8.48
2023-05-05T17:11:27.500Z,7.25
2023-05-05T17:13:54.576Z,7.65
2023-05-05T17:16:21.559Z,7.55
2023-05-05T17:18:48.607Z,7.28
2023-05-05T17:21:15.605Z,7.95
2023-05-05T17:23:42.712Z,9.02
2023-05-05T17:26:09.727Z,6.72
2023-05-05T17:28:36.917Z,5.90
2023-05-05T17:31:03.914Z,5.50
2023-05-05T17:33:31.739Z,5.78
2023-05-05T17:35:59.095Z,4.28
2023-05-05T17:38:26.221Z,4.30
2023-05-05T17:40:53.396Z,5.65
2023-05-05T17:43:20.392Z,6.18
2023-05-05T17:45:47.528Z,4.55
2023-05-05T17:48:14.604Z,4.82
2023-05-05T17:50:43.418Z,4.25
2023-05-05T17:53:11.188Z,4.78
2023-05-05T17:55:38.440Z,5.03
2023-05-05T17:58:05.459Z,4.10
2023-05-05T18:00:32.456Z,4.57
2023-05-05T18:03:04.614Z,4.03
2023-05-05T18:05:31.961Z,4.47
2023-05-05T18:07:59.307Z,5.85
2023-05-05T18:10:26.513Z,5.68
2023-05-05T18:12:53.544Z,8.05
2023-05-05T18:15:21.691Z,7.18
2023-05-05T18:17:48.699Z,8.10
2023-05-05T18:20:16.102Z,8.30
2023-05-05T18:22:43.161Z,7.82
2023-05-05T18:25:10.466Z,7.03
2023-05-05T18:27:40.138Z,7.40
2023-05-05T18:30:08.323Z,6.93
2023-05-05T18:32:35.441Z,5.90
2023-05-05T18:35:02.752Z,5.95
2023-05-05T18:37:29.812Z,6.05
2023-05-05T18:39:56.809Z,7.10
2023-05-05T18:42:23.757Z,6.78
2023-05-05T18:44:50.714Z,6.45
2023-05-05T18:47:17.657Z,6.25
2023-05-05T18:49:45.507Z,6.20
2023-05-05T18:52:12.524Z,6.28
2023-05-05T18:54:39.613Z,6.32
2023-05-05T18:57:07.043Z,6.40
2023-05-05T18:59:34.166Z,5.72
2023-05-05T19:02:01.318Z,5.70
2023-05-05T19:04:31.648Z,5.00
2023-05-05T19:06:59.912Z,5.78
2023-05-05T19:09:27.554Z,5.70
2023-05-05T19:12:00.500Z,6.47
2023-05-05T19:14:27.711Z,5.03
2023-05-05T19:16:56.039Z,5.45
2023-05-05T19:19:23.356Z,5.30
2023-05-05T19:21:50.978Z,5.78
2023-05-05T19:24:17.977Z,5.93
2023-05-05T19:26:45.063Z,6.00
2023-05-05T19:29:12.860Z,6.68
2023-05-05T19:31:39.982Z,6.32
2023-05-05T19:34:07.476Z,7.10
2023-05-05T19:36:35.419Z,7.28
2023-05-05T19:39:04.743Z,6.75
2023-05-05T19:41:32.719Z,7.15
2023-05-05T19:44:00.210Z,7.38
2023-05-05T19:46:27.666Z,7.13
2023-05-05T19:48:55.085Z,7.88
2023-05-05T19:51:22.245Z,8.27
2023-05-05T19:53:50.257Z,7.88
2023-05-05T19:56:17.506Z,7.75
2023-05-05T19:58:59.283Z,7.93
2023-05-05T20:01:28.052Z,9.05
2023-05-05T20:03:57.089Z,9.23
2023-05-05T20:06:27.595Z,11.48
2023-05-05T20:08:55.472Z,10.15
2023-05-05T20:11:23.180Z,9.50
2023-05-05T20:13:51.624Z,11.07
2023-05-05T20:16:18.941Z,9.75
2023-05-05T20:18:45.970Z,9.68
2023-05-05T20:21:13.190Z,10.50
2023-05-05T20:23:40.310Z,11.45
2023-05-05T20:26:07.785Z,12.10
2023-05-05T20:28:35.547Z,12.65
2023-05-05T20:31:02.501Z,12.80
2023-05-05T20:33:29.736Z,11.80
2023-05-05T20:35:57.030Z,11.93
2023-05-05T20:38:24.422Z,12.15
2023-05-05T20:40:52.324Z,13.07
2023-05-05T20:43:19.709Z,11.68
2023-05-05T20:45:47.198Z,12.23
2023-05-05T20:48:14.192Z,15.05
2023-05-05T20:50:42.139Z,14.88
2023-05-05T20:53:13.715Z,13.88
2023-05-05T20:55:40.900Z,14.98
2023-05-05T20:58:07.946Z,15.57
2023-05-05T21:00:35.410Z,14.68
2023-05-05T21:03:04.339Z,13.55
2023-05-05T21:05:31.714Z,13.68
2023-05-05T21:08:00.845Z,13.88
2023-05-05T21:10:29.144Z,14.57
2023-05-05T21:12:56.380Z,13.95
2023-05-05T21:15:23.418Z,16.13
2023-05-05T21:17:50.637Z,13.77
2023-05-05T21:20:18.784Z,16.00
2023-05-05T21:22:46.263Z,16.90
2023-05-05T21:25:20.315Z,16.55
2023-05-05T21:27:48.880Z,18.08
2023-05-05T21:30:16.610Z,18.70
2023-05-05T21:32:44.137Z,17.27
2023-05-05T21:35:11.504Z,17.42
2023-05-05T21:37:39.296Z,17.83
2023-05-05T21:40:13.646Z,19.13
2023-05-05T21:42:42.417Z,18.30
2023-05-05T21:45:11.477Z,19.45
2023-05-05T21:47:38.672Z,20.00
2023-05-05T21:50:06.763Z,19.15
2023-05-05T21:52:34.006Z,20.48
2023-05-05T21:55:01.163Z,22.67
2023-05-05T21:57:28.465Z,21.02
2023-05-05T21:59:55.801Z,22.63
2023-05-05T22:02:23.402Z,21.67
2023-05-05T22:04:54.847Z,21.92
2023-05-05T22:07:22.051Z,21.52
2023-05-05T22:09:49.024Z,22.67
2023-05-05T22:12:16.387Z,21.13
2023-05-05T22:14:43.380Z,22.77
2023-05-05T22:17:11.414Z,23.08
2023-05-05T22:19:38.421Z,22.10
2023-05-05T22:22:05.460Z,22.63
2023-05-05T22:24:32.559Z,22.25
2023-05-05T22:26:59.709Z,22.85
2023-05-05T22:29:26.606Z,20.63
2023-05-05T22:31:53.553Z,21.48
2023-05-05T22:34:21.964Z,21.15
2023-05-05T22:36:49.924Z,23.08
2023-05-05T22:39:18.515Z,22.77
2023-05-05T22:41:45.733Z,22.75
2023-05-05T22:44:12.828Z,22.63
2023-05-05T22:46:39.862Z,21.17
2023-05-05T22:49:06.966Z,23.10
2023-05-05T22:51:34.239Z,23.50
2023-05-05T22:54:01.421Z,24.98
2023-05-05T22:56:28.374Z,23.17
2023-05-05T22:58:56.038Z,23.65
2023-05-05T23:01:23.213Z,23.85
2023-05-05T23:03:50.330Z,23.33
2023-05-05T23:06:17.455Z,22.67
2023-05-05T23:08:44.707Z,22.17
2023-05-05T23:11:11.779Z,25.33
2023-05-05T23:13:38.731Z,23.83
2023-05-05T23:16:05.920Z,25.00
2023-05-05T23:18:32.940Z,27.30
2023-05-05T23:20:59.988Z,27.10
2023-05-05T23:23:27.038Z,25.83
2023-05-05T23:25:54.111Z,24.65
2023-05-05T23:28:21.081Z,25.48
2023-05-05T23:30:48.266Z,27.95
2023-05-05T23:33:15.419Z,30.10
2023-05-05T23:35:45.184Z,29.25
2023-05-05T23:38:12.290Z,28.88
2023-05-05T23:40:39.257Z,27.65
2023-05-05T23:43:06.316Z,28.77
2023-05-05T23:45:33.474Z,30.23
2023-05-05T23:48:00.516Z,29.48
2023-05-05T23:50:27.870Z,29.15
2023-05-05T23:52:54.908Z,29.63
2023-05-05T23:55:22.294Z,30.98
2023-05-05T23:57:51.630Z,29.45
